createdAt,value
2023-03-17T00:03:29.522Z,26.83
2023-03-17T00:05:59.977Z,27.83
2023-03-17T00:08:32.714Z,25.80
2023-03-17T00:11:02.502Z,27.48
2023-03-17T00:16:03.408Z,26.67
2023-03-17T00:18:35.612Z,32.22
2023-03-17T00:21:05.038Z,28.63
2023-03-17T00:23:35.421Z,27.88
2023-03-17T00:28:35.446Z,25.23
2023-03-17T00:31:13.633Z,27.80
2023-03-17T00:33:46.676Z,27.38
2023-03-17T00:36:18.971Z,26.63
2023-03-17T00:38:48.781Z,27.42
2023-03-17T00:41:18.411Z,27.77
2023-03-17T00:46:20.091Z,26.23
2023-03-17T00:48:51.324Z,25.45
2023-03-17T00:51:21.283Z,25.58
2023-03-17T00:53:50.833Z,24.05
2023-03-17T00:56:22.462Z,27.50
2023-03-17T00:58:52.271Z,26.20
2023-03-17T01:01:21.373Z,25.73
2023-03-17T01:03:52.882Z,26.80
2023-03-17T01:06:22.322Z,29.05
2023-03-17T01:08:52.392Z,26.17
2023-03-17T01:11:22.820Z,28.02
2023-03-17T01:13:52.820Z,28.35
2023-03-17T01:16:22.621Z,26.88
2023-03-17T01:18:56.090Z,28.00
2023-03-17T01:21:25.477Z,26.85
2023-03-17T01:23:55.130Z,28.13
2023-03-17T01:26:26.033Z,24.80
2023-03-17T01:28:55.560Z,27.85
2023-03-17T01:31:26.461Z,27.58
2023-03-17T01:33:57.286Z,27.40
2023-03-17T01:36:26.515Z,25.38
2023-03-17T01:38:55.838Z,26.65
2023-03-17T01:41:25.124Z,27.75
2023-03-17T01:43:54.474Z,27.63
2023-03-17T01:46:29.651Z,26.73
2023-03-17T01:49:09.537Z,25.70
2023-03-17T01:51:44.632Z,24.10
2023-03-17T01:54:18.317Z,23.77
2023-03-17T01:56:51.782Z,25.02
2023-03-17T01:59:27.230Z,25.25
2023-03-17T02:02:02.966Z,27.45
2023-03-17T02:04:35.005Z,27.48
2023-03-17T02:07:05.364Z,23.77
2023-03-17T02:09:35.634Z,25.40
2023-03-17T02:14:34.914Z,22.40
2023-03-17T02:17:04.737Z,24.52
2023-03-17T02:19:35.802Z,22.80
2023-03-17T02:22:06.339Z,25.98
2023-03-17T02:24:39.021Z,25.73
2023-03-17T02:27:13.516Z,25.60
2023-03-17T02:29:46.536Z,25.13
2023-03-17T02:32:21.738Z,25.10
2023-03-17T02:34:51.420Z,21.80
2023-03-17T02:37:21.968Z,24.58
2023-03-17T02:39:51.375Z,24.00
2023-03-17T02:42:20.415Z,22.03
2023-03-17T02:44:50.746Z,22.17
2023-03-17T02:47:21.695Z,22.77
2023-03-17T02:49:51.845Z,23.45
2023-03-17T02:52:22.511Z,24.95
2023-03-17T02:54:52.247Z,19.95
2023-03-17T02:57:21.488Z,20.25
2023-03-17T02:59:50.808Z,23.30
2023-03-17T03:02:19.981Z,20.70
2023-03-17T03:04:50.450Z,23.40
2023-03-17T03:09:50.302Z,22.37
2023-03-17T03:12:19.620Z,20.65
2023-03-17T03:14:49.014Z,22.30
2023-03-17T03:17:18.488Z,23.73
2023-03-17T03:19:48.596Z,21.20
2023-03-17T03:22:17.702Z,24.33
2023-03-17T03:24:47.289Z,20.88
2023-03-17T03:27:18.031Z,20.83
2023-03-17T03:29:47.769Z,20.13
2023-03-17T03:32:17.136Z,20.70
2023-03-17T03:34:47.002Z,20.45
2023-03-17T03:37:16.424Z,19.77
2023-03-17T03:39:45.857Z,20.90
2023-03-17T03:42:16.622Z,20.33
2023-03-17T03:44:46.028Z,18.58
2023-03-17T03:47:15.098Z,19.67
2023-03-17T03:49:44.550Z,17.63
2023-03-17T03:52:13.537Z,17.37
2023-03-17T03:54:43.193Z,19.55
2023-03-17T03:57:12.694Z,20.45
2023-03-17T03:59:43.860Z,20.00
2023-03-17T04:02:13.142Z,18.83
2023-03-17T04:04:42.812Z,18.35
2023-03-17T04:07:12.668Z,19.40
2023-03-17T04:09:42.634Z,20.02
2023-03-17T04:12:12.392Z,18.25
2023-03-17T04:17:14.084Z,18.35
2023-03-17T04:19:43.506Z,19.98
2023-03-17T04:22:13.460Z,20.75
2023-03-17T04:24:42.910Z,21.30
2023-03-17T04:27:12.416Z,21.00
2023-03-17T04:29:43.969Z,21.65
2023-03-17T04:32:15.010Z,22.13
2023-03-17T04:34:45.012Z,22.13
2023-03-17T04:37:15.266Z,23.45
2023-03-17T04:39:44.692Z,23.58
2023-03-17T04:42:14.036Z,24.07
2023-03-17T04:44:44.902Z,25.15
2023-03-17T04:47:14.153Z,22.88
2023-03-17T04:49:43.655Z,24.08
2023-03-17T04:52:13.049Z,26.02
2023-03-17T04:54:42.596Z,23.02
2023-03-17T04:57:12.002Z,25.65
2023-03-17T04:59:41.489Z,24.52
2023-03-17T05:02:12.464Z,23.35
2023-03-17T05:04:42.147Z,28.90
2023-03-17T05:07:11.310Z,23.55
2023-03-17T05:09:40.682Z,27.70
2023-03-17T05:12:10.989Z,27.27
2023-03-17T05:14:40.565Z,25.42
2023-03-17T05:17:11.591Z,30.80
2023-03-17T05:19:41.031Z,32.22
2023-03-17T05:22:10.214Z,33.10
2023-03-17T05:24:40.850Z,28.58
2023-03-17T05:27:10.051Z,27.47
2023-03-17T05:29:39.689Z,27.98
2023-03-17T05:32:09.098Z,30.23
2023-03-17T05:34:40.088Z,30.92
2023-03-17T05:37:10.332Z,30.45
2023-03-17T05:39:39.921Z,29.92
2023-03-17T05:42:09.302Z,38.70
2023-03-17T05:44:38.711Z,37.10
2023-03-17T05:47:08.538Z,37.55
2023-03-17T05:49:39.348Z,32.72
2023-03-17T05:52:08.955Z,32.47
2023-03-17T05:54:38.805Z,41.40
2023-03-17T05:57:08.005Z,38.85
2023-03-17T05:59:37.514Z,37.22
2023-03-17T06:02:06.813Z,36.38
2023-03-17T06:04:36.459Z,33.53
2023-03-17T06:07:07.419Z,36.03
2023-03-17T06:09:37.212Z,35.25
2023-03-17T06:12:06.940Z,39.45
2023-03-17T06:14:36.731Z,39.28
2023-03-17T06:17:06.385Z,39.13
2023-03-17T06:19:36.869Z,39.85
2023-03-17T06:24:37.227Z,37.50
2023-03-17T06:27:06.446Z,31.75
2023-03-17T06:29:35.976Z,30.55
2023-03-17T06:32:19.523Z,26.30
2023-03-17T06:34:50.062Z,25.05
2023-03-17T06:37:21.384Z,27.30
2023-03-17T06:39:50.769Z,24.30
2023-03-17T06:42:20.198Z,25.97
2023-03-17T06:44:52.347Z,26.02
2023-03-17T06:47:23.037Z,25.48
2023-03-17T06:49:53.868Z,25.77
2023-03-17T06:52:24.317Z,28.27
2023-03-17T06:54:54.167Z,28.77
2023-03-17T06:57:23.667Z,28.48
2023-03-17T06:59:52.969Z,28.02
2023-03-17T07:02:23.046Z,28.10
2023-03-17T07:04:53.500Z,28.85
2023-03-17T07:07:25.616Z,24.50
2023-03-17T07:09:55.229Z,24.15
2023-03-17T07:12:24.325Z,24.13
2023-03-17T07:14:54.511Z,25.15
2023-03-17T07:19:53.532Z,21.52
2023-03-17T07:22:24.081Z,23.65
2023-03-17T07:24:53.493Z,24.15
2023-03-17T07:27:25.450Z,21.38
2023-03-17T07:29:55.038Z,23.73
2023-03-17T07:32:24.746Z,21.25
2023-03-17T07:34:54.724Z,18.75
2023-03-17T07:37:26.764Z,21.15
2023-03-17T07:39:56.284Z,22.58
2023-03-17T07:42:25.380Z,21.83
2023-03-17T07:44:54.908Z,20.98
2023-03-17T07:47:23.960Z,21.02
2023-03-17T07:49:53.522Z,20.90
2023-03-17T07:52:22.716Z,19.77
2023-03-17T07:54:54.036Z,20.17
2023-03-17T07:57:23.503Z,22.58
2023-03-17T07:59:52.957Z,21.25
2023-03-17T08:02:22.524Z,23.25
2023-03-17T08:04:52.302Z,19.73
2023-03-17T08:07:22.643Z,21.95
2023-03-17T08:09:54.072Z,20.17
2023-03-17T08:12:23.411Z,18.90
2023-03-17T08:14:52.716Z,19.65
2023-03-17T08:17:21.805Z,21.75
2023-03-17T08:19:51.435Z,20.85
2023-03-17T08:22:20.616Z,19.05
2023-03-17T08:24:50.022Z,19.52
2023-03-17T08:27:21.639Z,19.20
2023-03-17T08:29:51.509Z,20.35
2023-03-17T08:32:20.831Z,17.85
2023-03-17T08:34:53.703Z,18.63
2023-03-17T08:37:24.765Z,16.45
2023-03-17T08:42:24.649Z,15.23
2023-03-17T08:44:54.287Z,18.33
2023-03-17T08:47:23.587Z,18.15
2023-03-17T08:49:53.368Z,16.95
2023-03-17T08:52:22.622Z,15.52
2023-03-17T08:54:54.732Z,16.98
2023-03-17T08:57:25.925Z,15.75
2023-03-17T08:59:55.887Z,15.98
2023-03-17T09:04:54.463Z,14.52
2023-03-17T09:07:23.529Z,16.95
2023-03-17T09:09:53.163Z,17.65
2023-03-17T09:12:22.475Z,16.70
2023-03-17T09:14:53.494Z,12.05
2023-03-17T09:17:22.826Z,16.00
2023-03-17T09:19:52.398Z,17.15
2023-03-17T09:22:21.833Z,16.55
2023-03-17T09:24:51.402Z,17.35
2023-03-17T09:27:21.012Z,15.18
2023-03-17T09:29:50.506Z,16.27
2023-03-17T09:32:21.231Z,14.10
2023-03-17T09:34:51.726Z,13.35
2023-03-17T09:37:21.425Z,14.27
2023-03-17T09:39:51.331Z,11.73
2023-03-17T09:42:36.508Z,11.90
2023-03-17T09:45:19.989Z,12.57
2023-03-17T09:48:12.339Z,13.55
2023-03-17T09:50:49.989Z,13.43
2023-03-17T09:53:22.880Z,11.07
2023-03-17T09:55:58.013Z,10.60
2023-03-17T09:58:32.272Z,10.98
2023-03-17T10:01:05.205Z,9.57
2023-03-17T10:03:37.723Z,9.68
2023-03-17T10:06:35.057Z,11.80
2023-03-17T10:09:26.210Z,9.00
2023-03-17T10:12:07.628Z,9.68
2023-03-17T10:14:55.730Z,8.20
2023-03-17T10:17:31.753Z,10.77
2023-03-17T10:20:10.605Z,7.97
2023-03-17T10:22:46.244Z,10.52
2023-03-17T10:25:17.788Z,11.00
2023-03-17T10:27:52.228Z,11.00
2023-03-17T10:30:23.769Z,5.50
2023-03-17T10:32:56.459Z,10.38
2023-03-17T10:35:28.044Z,8.65
2023-03-17T10:38:13.485Z,11.18
2023-03-17T10:40:45.457Z,11.13
2023-03-17T10:43:20.630Z,8.07
2023-03-17T10:46:00.138Z,10.20
2023-03-17T10:48:32.361Z,11.20
2023-03-17T10:51:09.280Z,10.95
2023-03-17T10:53:43.446Z,9.27
2023-03-17T10:56:23.606Z,9.13
2023-03-17T10:58:55.554Z,10.18
2023-03-17T11:01:31.140Z,6.95
2023-03-17T11:04:03.931Z,8.30
2023-03-17T11:06:39.394Z,9.85
2023-03-17T11:09:12.539Z,8.27
2023-03-17T11:11:47.383Z,6.65
2023-03-17T11:14:18.741Z,7.35
2023-03-17T11:16:55.678Z,9.27
2023-03-17T11:19:32.856Z,7.65
2023-03-17T11:22:11.843Z,10.05
2023-03-17T11:24:52.882Z,8.98
2023-03-17T11:27:31.709Z,10.10
2023-03-17T11:30:26.574Z,8.45
2023-03-17T11:33:01.061Z,8.85
2023-03-17T11:35:51.602Z,9.98
2023-03-17T11:38:26.038Z,11.25
2023-03-17T11:41:24.356Z,8.82
2023-03-17T11:44:05.811Z,6.80
2023-03-17T11:46:43.639Z,9.98
2023-03-17T11:49:16.058Z,8.55
2023-03-17T11:51:57.262Z,7.88
2023-03-17T11:54:37.507Z,9.02
2023-03-17T11:57:11.271Z,6.93
2023-03-17T11:59:46.561Z,9.10
2023-03-17T12:02:24.398Z,7.88
2023-03-17T12:04:58.367Z,10.48
2023-03-17T12:07:31.685Z,9.35
2023-03-17T12:10:11.679Z,8.52
2023-03-17T12:12:48.310Z,11.00
2023-03-17T12:15:26.777Z,10.07
2023-03-17T12:18:00.557Z,8.70
2023-03-17T12:20:35.056Z,8.73
2023-03-17T12:23:12.224Z,10.20
2023-03-17T12:25:51.048Z,8.93
2023-03-17T12:28:24.551Z,9.88
2023-03-17T12:31:01.816Z,8.90
2023-03-17T12:33:40.117Z,9.75
2023-03-17T12:36:14.850Z,8.88
2023-03-17T12:38:47.595Z,9.50
2023-03-17T12:41:43.791Z,8.93
2023-03-17T12:44:27.747Z,9.13
2023-03-17T12:47:31.812Z,9.90
2023-03-17T12:53:49.210Z,9.80
2023-03-17T12:56:27.540Z,10.95
2023-03-17T12:59:07.064Z,11.07
2023-03-17T13:04:27.153Z,9.50
2023-03-17T13:07:08.854Z,11.05
2023-03-17T13:09:56.225Z,9.98
2023-03-17T13:12:58.715Z,10.65
2023-03-17T13:16:08.119Z,11.43
2023-03-17T13:18:53.452Z,8.45
2023-03-17T13:21:26.509Z,11.55
2023-03-17T13:23:59.170Z,10.20
2023-03-17T13:26:55.584Z,11.82
2023-03-17T13:29:39.836Z,12.10
2023-03-17T13:32:49.304Z,11.10
2023-03-17T13:35:29.142Z,10.25
2023-03-17T13:38:35.777Z,5.88
2023-03-17T13:41:33.102Z,9.10
2023-03-17T13:44:20.954Z,9.20
2023-03-17T13:46:55.243Z,11.40
2023-03-17T13:49:30.627Z,10.65
2023-03-17T13:52:09.769Z,8.98
2023-03-17T13:54:48.438Z,9.25
2023-03-17T13:57:28.097Z,8.95
2023-03-17T14:00:05.223Z,11.05
2023-03-17T14:02:41.115Z,11.32
2023-03-17T14:05:19.375Z,11.05
2023-03-17T14:07:57.436Z,8.80
2023-03-17T14:10:29.765Z,9.52
2023-03-17T14:13:04.528Z,7.13
2023-03-17T14:15:42.225Z,9.85
2023-03-17T14:18:18.523Z,9.35
2023-03-17T14:20:58.782Z,9.40
2023-03-17T14:23:31.146Z,8.52
2023-03-17T14:26:04.815Z,8.43
2023-03-17T14:28:36.057Z,9.52
2023-03-17T14:31:07.813Z,7.47
2023-03-17T14:33:41.854Z,9.02
2023-03-17T14:36:15.648Z,7.85
2023-03-17T14:38:50.458Z,8.50
2023-03-17T14:41:22.753Z,9.07
2023-03-17T14:43:54.469Z,10.88
2023-03-17T14:46:27.941Z,9.10
2023-03-17T14:49:03.023Z,9.18
2023-03-17T14:51:38.258Z,9.30
2023-03-17T14:54:17.268Z,9.30
2023-03-17T14:57:01.633Z,9.90
2023-03-17T14:59:36.259Z,8.93
2023-03-17T15:02:18.644Z,8.77
2023-03-17T15:04:55.336Z,8.93
2023-03-17T15:07:33.720Z,7.85
2023-03-17T15:12:38.035Z,9.90
2023-03-17T15:15:18.952Z,10.52
2023-03-17T15:17:52.498Z,10.30
2023-03-17T15:20:23.815Z,9.82
2023-03-17T15:22:59.603Z,9.68
2023-03-17T15:25:35.657Z,8.82
2023-03-17T15:28:13.475Z,8.07
2023-03-17T15:30:47.498Z,8.57
2023-03-17T15:33:23.185Z,8.27
2023-03-17T15:35:54.041Z,8.80
2023-03-17T15:38:23.320Z,10.98
2023-03-17T15:43:23.664Z,8.52
2023-03-17T15:45:59.287Z,9.25
2023-03-17T15:48:31.824Z,8.57
2023-03-17T15:51:04.912Z,8.85
2023-03-17T15:53:34.643Z,9.10
2023-03-17T15:56:04.006Z,7.97
2023-03-17T15:58:35.966Z,7.13
2023-03-17T16:01:06.483Z,8.70
2023-03-17T16:03:38.104Z,8.85
2023-03-17T16:06:16.902Z,9.32
2023-03-17T16:08:46.506Z,9.00
2023-03-17T16:11:19.162Z,8.38
2023-03-17T16:13:51.083Z,9.10
2023-03-17T16:16:24.841Z,9.27
2023-03-17T16:18:54.154Z,7.65
2023-03-17T16:21:25.924Z,7.88
2023-03-17T16:23:55.782Z,8.90
2023-03-17T16:26:25.093Z,8.75
2023-03-17T16:28:59.194Z,8.77
2023-03-17T16:31:38.897Z,8.82
2023-03-17T16:34:17.904Z,8.18
2023-03-17T16:36:50.411Z,9.52
2023-03-17T16:39:21.340Z,8.60
2023-03-17T16:41:52.137Z,8.30
2023-03-17T16:44:23.629Z,8.38
2023-03-17T16:46:53.103Z,8.98
2023-03-17T16:49:23.798Z,11.95
2023-03-17T16:51:54.638Z,11.02
2023-03-17T16:54:23.724Z,9.85
2023-03-17T16:56:53.160Z,9.38
2023-03-17T16:59:24.509Z,9.93
2023-03-17T17:01:54.988Z,8.43
2023-03-17T17:04:24.893Z,8.68
2023-03-17T17:06:56.744Z,8.95
2023-03-17T17:09:28.661Z,9.23
2023-03-17T17:11:58.774Z,9.13
2023-03-17T17:16:57.531Z,9.07
2023-03-17T17:19:26.526Z,8.50
2023-03-17T17:21:57.984Z,10.48
2023-03-17T17:24:27.289Z,10.88
2023-03-17T17:26:56.890Z,9.15
2023-03-17T17:29:26.155Z,9.30
2023-03-17T17:31:58.335Z,10.73
2023-03-17T17:34:27.525Z,10.68
2023-03-17T17:36:58.800Z,9.65
2023-03-17T17:39:28.031Z,11.27
2023-03-17T17:41:57.330Z,11.45
2023-03-17T17:44:26.561Z,11.93
2023-03-17T17:46:55.953Z,9.88
2023-03-17T17:49:27.200Z,10.23
2023-03-17T17:51:58.143Z,11.45
2023-03-17T17:54:27.432Z,11.23
2023-03-17T17:56:56.707Z,10.10
2023-03-17T17:59:27.004Z,10.00
2023-03-17T18:01:59.892Z,10.57
2023-03-17T18:04:29.228Z,8.68
2023-03-17T18:07:00.054Z,9.27
2023-03-17T18:09:32.892Z,10.75
2023-03-17T18:17:01.964Z,10.35
2023-03-17T18:19:31.246Z,11.35
2023-03-17T18:22:02.418Z,12.38
2023-03-17T18:24:32.105Z,10.57
2023-03-17T18:27:03.867Z,11.02
2023-03-17T18:29:33.200Z,11.95
2023-03-17T18:32:06.067Z,11.52
2023-03-17T18:34:40.759Z,11.35
2023-03-17T18:37:13.885Z,10.65
2023-03-17T18:39:52.489Z,11.23
2023-03-17T18:42:30.503Z,11.75
2023-03-17T18:45:01.475Z,11.95
2023-03-17T18:47:36.621Z,13.20
2023-03-17T18:50:09.073Z,14.02
2023-03-17T18:52:44.953Z,11.63
2023-03-17T18:55:21.440Z,13.63
2023-03-17T18:57:58.079Z,14.00
2023-03-17T19:00:34.371Z,13.77
2023-03-17T19:03:09.944Z,13.70
2023-03-17T19:08:17.978Z,13.48
2023-03-17T19:10:48.616Z,12.80
2023-03-17T19:13:19.308Z,13.35
2023-03-17T19:15:48.790Z,14.65
2023-03-17T19:18:18.866Z,14.48
2023-03-17T19:20:48.021Z,14.40
2023-03-17T19:23:21.324Z,16.25
2023-03-17T19:25:51.575Z,16.10
2023-03-17T19:28:21.938Z,14.15
2023-03-17T19:30:54.163Z,16.55
2023-03-17T19:33:24.162Z,14.43
2023-03-17T19:35:59.701Z,16.83
2023-03-17T19:38:31.288Z,13.57
2023-03-17T19:41:03.662Z,13.10
2023-03-17T19:43:41.288Z,14.00
2023-03-17T19:46:15.308Z,14.27
2023-03-17T19:48:45.529Z,13.13
2023-03-17T19:51:17.792Z,13.75
2023-03-17T19:53:50.807Z,14.15
2023-03-17T19:56:22.133Z,14.85
2023-03-17T19:58:52.580Z,13.82
2023-03-17T20:01:28.961Z,14.43
2023-03-17T20:03:59.412Z,16.27
2023-03-17T20:06:29.730Z,15.27
2023-03-17T20:09:01.079Z,13.65
2023-03-17T20:11:34.418Z,15.50
2023-03-17T20:14:08.040Z,15.13
2023-03-17T20:16:37.712Z,14.85
2023-03-17T20:19:08.316Z,14.70
2023-03-17T20:21:39.402Z,14.23
2023-03-17T20:24:14.633Z,15.43
2023-03-17T20:26:47.127Z,14.48
2023-03-17T20:29:18.260Z,12.52
2023-03-17T20:31:48.381Z,13.25
2023-03-17T20:34:18.652Z,12.75
2023-03-17T20:36:49.926Z,12.27
2023-03-17T20:39:21.517Z,14.05
2023-03-17T20:41:52.578Z,15.07
2023-03-17T20:44:25.435Z,14.75
2023-03-17T20:46:55.063Z,13.80
2023-03-17T20:49:31.005Z,15.45
2023-03-17T20:52:03.187Z,13.73
2023-03-17T20:54:37.776Z,13.88
2023-03-17T20:57:07.344Z,16.00
2023-03-17T20:59:37.392Z,14.13
2023-03-17T21:02:15.143Z,13.93
2023-03-17T21:04:49.032Z,14.32
2023-03-17T21:07:21.156Z,13.80
2023-03-17T21:09:56.455Z,13.38
2023-03-17T21:12:28.080Z,14.40
2023-03-17T21:15:01.729Z,14.63
2023-03-17T21:17:36.614Z,13.82
2023-03-17T21:20:09.640Z,15.90
2023-03-17T21:22:41.326Z,14.23
2023-03-17T21:25:13.553Z,15.05
2023-03-17T21:27:46.699Z,14.02
2023-03-17T21:30:17.945Z,14.07
2023-03-17T21:32:48.851Z,14.93
2023-03-17T21:37:48.102Z,14.43
2023-03-17T21:40:23.629Z,15.50
2023-03-17T21:42:52.983Z,14.82
2023-03-17T21:45:25.993Z,15.02
2023-03-17T21:47:58.925Z,14.82
2023-03-17T21:50:29.176Z,14.57
2023-03-17T21:53:00.879Z,16.10
2023-03-17T21:55:35.902Z,15.25
2023-03-17T21:58:08.515Z,15.38
2023-03-17T22:00:45.202Z,15.75
2023-03-17T22:03:14.973Z,16.48
2023-03-17T22:05:47.189Z,15.80
2023-03-17T22:08:16.456Z,14.75
2023-03-17T22:10:47.220Z,16.48
2023-03-17T22:13:16.568Z,15.13
2023-03-17T22:15:46.132Z,14.43
2023-03-17T22:18:18.413Z,17.13
2023-03-17T22:20:47.854Z,15.25
2023-03-17T22:23:17.049Z,17.10
2023-03-17T22:25:47.857Z,14.65
2023-03-17T22:28:18.912Z,15.57
2023-03-17T22:30:49.254Z,17.08
2023-03-17T22:33:18.621Z,14.25
2023-03-17T22:35:48.074Z,15.85
2023-03-17T22:38:17.952Z,15.65
2023-03-17T22:40:48.736Z,14.48
2023-03-17T22:43:17.949Z,15.00
2023-03-17T22:45:48.615Z,14.73
2023-03-17T22:48:17.703Z,14.10
2023-03-17T22:50:46.982Z,15.07
2023-03-17T22:53:16.070Z,15.10
2023-03-17T22:55:47.645Z,15.77
2023-03-17T22:58:16.802Z,15.27
2023-03-17T23:00:47.809Z,15.23
2023-03-17T23:03:17.393Z,15.85
2023-03-17T23:05:48.042Z,15.52
2023-03-17T23:08:17.526Z,16.17
2023-03-17T23:10:50.273Z,16.15
2023-03-17T23:13:20.929Z,15.93
2023-03-17T23:15:51.244Z,14.27
2023-03-17T23:18:20.348Z,16.42
2023-03-17T23:20:49.798Z,16.60
2023-03-17T23:23:19.996Z,15.55
2023-03-17T23:25:51.998Z,16.23
2023-03-17T23:28:21.539Z,14.95
2023-03-17T23:30:51.175Z,15.18
2023-03-17T23:33:22.833Z,16.75
2023-03-17T23:35:52.896Z,14.25
2023-03-17T23:38:22.718Z,13.75
2023-03-17T23:40:56.740Z,14.40
2023-03-17T23:43:27.537Z,17.83
2023-03-17T23:45:56.930Z,10.75
2023-03-17T23:48:26.064Z,15.98
2023-03-17T23:50:55.758Z,14.15
2023-03-17T23:53:26.438Z,13.82
2023-03-17T23:56:00.056Z,15.85
2023-03-17T23:58:29.279Z,15.98
